Time;durP1;ratioP1;P1;durP2;ratioP2;P2;SDS_P1;SDS_P2;PMS_P1;PMS_P2;Temp;Humidity;BMP_temperature;BMP_pressure;BME280_temperature;BME280_humidity;BME280_pressure;Samples;Min_cycle;Max_cycle;Signal;HPM_P1;HPM_P2
2024/03/31 00:02:05;;;;;;;0.10;0.10;;;;;;;4.82;100.00;98275.66;4815924;29;20026;-77
2024/03/31 00:04:31;;;;;;;0.00;0.00;;;;;;;4.84;100.00;98270.78;4802224;29;20061;-78
2024/03/31 00:07:22;;;;;;;0.00;0.00;;;;;;;4.74;100.00;98243.78;4813624;29;20031;-77
2024/03/31 00:09:48;;;;;;;0.00;0.00;;;;;;;4.72;100.00;98258.41;4813813;29;20045;-79
2024/03/31 00:12:14;;;;;;;0.00;0.00;;;;;;;4.77;100.00;98260.25;4834794;29;20530;-78
2024/03/31 00:14:40;;;;;;;0.00;0.00;;;;;;;4.63;100.00;98238.44;4839344;29;20042;-78
2024/03/31 00:17:05;;;;;;;0.00;0.00;;;;;;;4.78;100.00;98251.06;4818090;29;20074;-80
2024/03/31 00:19:44;;;;;;;;;;;;;;;;;;;;;
2024/03/31 00:22:10;;;;;;;0.00;0.00;;;;;;;4.79;100.00;98239.13;4819319;29;20046;-78
2024/03/31 00:24:43;;;;;;;0.00;0.00;;;;;;;4.76;100.00;98231.59;4818397;29;20100;-77
2024/03/31 00:27:19;;;;;;;0.00;0.00;;;;;;;4.87;100.00;98248.56;4820178;29;20042;-77
2024/03/31 00:29:44;;;;;;;0.05;0.05;;;;;;;4.85;100.00;98245.34;4818035;29;20039;-77
2024/03/31 00:32:10;;;;;;;0.10;0.10;;;;;;;4.97;100.00;98264.72;4803441;29;20039;-78
2024/03/31 00:34:35;;;;;;;0.00;0.00;;;;;;;4.82;100.00;98238.56;4816536;29;20121;-77
2024/03/31 00:37:01;;;;;;;0.10;0.10;;;;;;;4.71;100.00;98227.00;4820259;29;20042;-77
2024/03/31 00:39:36;;;;;;;;;;;;;;;;;;;;;
2024/03/31 00:42:04;;;;;;;0.00;0.00;;;;;;;4.77;100.00;98237.81;4827201;29;20036;-78
2024/03/31 00:45:28;;;;;;;;;;;;;;;;;;;;;
2024/03/31 00:48:22;;;;;;;;;;;;;;;;;;;;;
2024/03/31 00:51:04;;;;;;;0.00;0.00;;;;;;;4.71;100.00;98237.03;4814938;29;20606;-78
2024/03/31 00:53:46;;;;;;;0.10;0.10;;;;;;;4.70;100.00;98221.84;4803717;29;20042;-82
2024/03/31 00:56:13;;;;;;;0.00;0.00;;;;;;;4.71;100.00;98243.22;4790435;29;20058;-79
2024/03/31 00:58:39;;;;;;;0.00;0.00;;;;;;;4.67;100.00;98233.25;4820199;29;20097;-77
2024/03/31 01:02:48;;;;;;;;;;;;;;;;;;;;;
2024/03/31 01:04:47;;;;;;;0.10;0.10;;;;;;;4.58;100.00;98219.50;4801477;29;20367;-80
2024/03/31 01:07:51;;;;;;;0.00;0.00;;;;;;;4.43;100.00;98193.34;4802749;29;20105;-80
2024/03/31 01:13:43;;;;;;;0.00;0.00;;;;;;;4.60;100.00;98221.94;4732977;30;20142;-78
2024/03/31 01:16:58;;;;;;;0.00;0.00;;;;;;;4.39;100.00;98188.78;4811944;29;20216;-79
2024/03/31 01:19:47;;;;;;;0.00;0.00;;;;;;;4.66;100.00;98229.75;4813498;29;20099;-78
2024/03/31 01:22:14;;;;;;;0.10;0.10;;;;;;;4.46;100.00;98194.69;4812653;29;20470;-79
2024/03/31 01:25:03;;;;;;;0.00;0.00;;;;;;;4.61;100.00;98218.94;4812570;29;20038;-80
2024/03/31 01:28:04;;;;;;;;;;;;;;;;;;;;;
2024/03/31 01:30:30;;;;;;;0.00;0.00;;;;;;;4.32;100.00;98170.97;4777353;29;20054;-78
2024/03/31 01:33:22;;;;;;;;;;;;;;;;;;;;;
2024/03/31 01:36:52;;;;;;;;;;;;;;;;;;;;;
2024/03/31 01:39:17;;;;;;;;;;;;;;;;;;;;;
2024/03/31 01:41:51;;;;;;;0.00;0.00;;;;;;;4.62;100.00;98220.56;4813471;29;20393;-79
2024/03/31 01:44:56;;;;;;;;;;;;;;;;;;;;;
2024/03/31 01:48:08;;;;;;;0.00;0.00;;;;;;;4.27;100.00;98168.28;4822277;29;20050;-80
2024/03/31 01:54:18;;;;;;;0.05;0.05;;;;;;;4.62;100.00;98225.97;4806606;29;20517;-79
2024/03/31 01:56:54;;;;;;;0.00;0.00;;;;;;;4.41;100.00;98203.66;4812113;29;20505;-78
2024/03/31 01:59:20;;;;;;;0.00;0.00;;;;;;;4.24;100.00;98170.75;4799931;29;20039;-78
2024/03/31 02:02:13;;;;;;;;;;;;;;;;;;;;;
2024/03/31 02:04:48;;;;;;;0.00;0.00;;;;;;;4.32;100.00;98195.31;4813422;29;20047;-78
2024/03/31 02:14:34;;;;;;;0.00;0.00;;;;;;;4.27;100.00;98197.25;4759253;29;20121;-80
2024/03/31 02:20:53;;;;;;;0.00;0.00;;;;;;;4.04;100.00;98160.84;4781132;29;20396;-77
2024/03/31 02:23:42;;;;;;;0.10;0.10;;;;;;;3.93;100.00;98150.06;4773091;29;20088;-77
2024/03/31 02:26:35;;;;;;;0.00;0.00;;;;;;;4.07;100.00;98181.91;4758630;30;20052;-78
2024/03/31 02:29:15;;;;;;;;;;;;;;;;;;;;;
2024/03/31 02:31:46;;;;;;;0.00;0.00;;;;;;;3.93;100.00;98160.88;4814606;29;20024;-77
2024/03/31 02:34:14;;;;;;;0.00;0.00;;;;;;;4.18;100.00;98216.75;4813646;29;20489;-77
2024/03/31 02:40:59;;;;;;;0.00;0.00;;;;;;;4.13;100.00;98207.84;4761935;29;20052;-79
2024/03/31 02:43:34;;;;;;;;;;;;;;;4.15;100.00;98209.19;4739358;30;20058;-77
2024/03/31 02:46:30;;;;;;;0.00;0.00;;;;;;;4.13;100.00;98202.44;4760612;30;20350;-76
2024/03/31 02:48:56;;;;;;;0.00;0.00;;;;;;;4.02;100.00;98191.66;4801595;29;20068;-76
2024/03/31 03:05:13;;;;;;;;;;;;;;;;;;;;;
2024/03/31 03:07:49;;;;;;;0.00;0.00;;;;;;;3.58;100.00;98135.63;4779854;29;20495;-77
2024/03/31 03:13:32;;;;;;;0.00;0.00;;;;;;;3.82;100.00;98162.81;4760556;29;20043;-77
2024/03/31 03:16:54;;;;;;;;;;;;;;;;;;;;;
2024/03/31 03:19:33;;;;;;;;;;;;;;;;;;;;;
2024/03/31 03:22:31;;;;;;;0.10;0.10;;;;;;;3.80;100.00;98153.38;4813886;29;21019;-77
2024/03/31 03:24:57;;;;;;;0.00;0.00;;;;;;;3.73;100.00;98136.66;4814018;29;20053;-77
2024/03/31 03:27:59;;;;;;;0.10;0.10;;;;;;;3.79;100.00;98146.34;4814010;29;20054;-78
2024/03/31 03:31:22;;;;;;;0.00;0.00;;;;;;;3.92;100.00;98172.78;4800440;29;20041;-78
2024/03/31 03:37:15;;;;;;;0.10;0.10;;;;;;;3.67;100.00;98131.25;4809609;29;20034;-78
2024/03/31 03:43:14;;;;;;;0.00;0.00;;;;;;;3.95;100.00;98164.09;4796939;29;20051;-79
2024/03/31 03:45:46;;;;;;;0.00;0.00;;;;;;;3.64;100.00;98107.47;4799325;29;20038;-79
2024/03/31 03:48:16;;;;;;;0.00;0.00;;;;;;;3.62;100.00;98096.16;4811352;29;20117;-80
2024/03/31 03:51:23;;;;;;;0.10;0.10;;;;;;;3.77;100.00;98127.69;4820730;29;20174;-79
2024/03/31 03:57:38;;;;;;;0.00;0.00;;;;;;;3.63;100.00;98113.97;4737034;29;20050;-79
2024/03/31 04:00:55;;;;;;;0.00;0.00;;;;;;;3.66;100.00;98118.00;4772470;29;20378;-78
2024/03/31 04:03:21;;;;;;;0.10;0.10;;;;;;;3.49;100.00;98091.34;4813158;29;20437;-80
2024/03/31 04:06:29;;;;;;;;;;;;;;;;;;;;;
2024/03/31 04:08:54;;;;;;;0.00;0.00;;;;;;;3.75;100.00;98099.31;4763840;30;20073;-80
2024/03/31 04:11:48;;;;;;;;;;;;;;;;;;;;;
2024/03/31 04:14:23;;;;;;;0.00;0.00;;;;;;;4.05;100.00;98105.66;4802984;29;20043;-80
2024/03/31 04:16:58;;;;;;;0.00;0.00;;;;;;;4.12;100.00;98125.09;4795457;29;20030;-79
2024/03/31 04:19:42;;;;;;;;;;;;;;;;;;;;;
2024/03/31 04:22:11;;;;;;;0.00;0.00;;;;;;;3.83;100.00;98112.28;4815330;29;20050;-76
2024/03/31 04:24:36;;;;;;;0.00;0.00;;;;;;;4.00;100.00;98145.16;4818353;29;20022;-76
2024/03/31 04:27:05;;;;;;;0.10;0.10;;;;;;;3.71;100.00;98114.47;4814404;29;20038;-76
2024/03/31 04:29:30;;;;;;;0.00;0.00;;;;;;;3.82;100.00;98143.09;4800116;29;20036;-77
2024/03/31 04:31:59;;;;;;;0.00;0.00;;;;;;;3.63;100.00;98119.38;4797546;29;20034;-78
2024/03/31 04:34:30;;;;;;;0.00;0.00;;;;;;;3.64;100.00;98118.28;4815996;29;20423;-77
2024/03/31 04:36:57;;;;;;;0.00;0.00;;;;;;;3.72;100.00;98133.13;4796562;29;20113;-78
2024/03/31 04:39:24;;;;;;;0.00;0.00;;;;;;;3.54;100.00;98109.44;4816591;29;20034;-78
2024/03/31 04:41:56;;;;;;;0.00;0.00;;;;;;;3.39;100.00;98092.19;4812268;29;20067;-77
2024/03/31 04:44:32;;;;;;;0.00;0.00;;;;;;;3.48;100.00;98108.63;4816577;29;20397;-77
2024/03/31 04:47:00;;;;;;;0.10;0.10;;;;;;;3.42;100.00;98097.03;4809369;29;20023;-78
2024/03/31 04:49:26;;;;;;;0.00;0.00;;;;;;;3.56;100.00;98118.84;4823903;29;20125;-81
2024/03/31 04:51:51;;;;;;;0.00;0.00;;;;;;;3.58;100.00;98122.09;4804330;29;20666;-78
2024/03/31 04:54:20;;;;;;;0.00;0.00;;;;;;;3.38;100.00;98089.75;4816985;29;20042;-78
2024/03/31 04:56:57;;;;;;;0.00;0.00;;;;;;;3.44;100.00;98094.06;4813357;29;20651;-77
2024/03/31 04:59:42;;;;;;;;;;;;;;;;;;;;;
2024/03/31 05:02:18;;;;;;;0.00;0.00;;;;;;;3.51;100.00;98099.97;4818638;29;20490;-77
2024/03/31 05:04:46;;;;;;;0.10;0.10;;;;;;;3.51;100.00;98091.88;4801674;29;20115;-79
2024/03/31 05:07:14;;;;;;;0.00;0.00;;;;;;;3.45;100.00;98084.88;4789387;29;20470;-78
2024/03/31 05:09:42;;;;;;;0.00;0.00;;;;;;;3.50;100.00;98092.94;4783503;29;20042;-78
2024/03/31 05:12:37;;;;;;;0.00;0.00;;;;;;;3.26;100.00;98044.16;4816094;29;20128;-78
2024/03/31 05:15:03;;;;;;;0.10;0.10;;;;;;;3.42;100.00;98069.22;4801575;29;20058;-79
2024/03/31 05:17:45;;;;;;;;;;;;;;;;;;;;;
2024/03/31 05:20:11;;;;;;;0.10;0.10;;;;;;;3.42;100.00;98074.63;4817862;29;20050;-79
2024/03/31 05:22:39;;;;;;;0.00;0.00;;;;;;;3.42;100.00;98074.63;4823568;29;20030;-79
2024/03/31 05:25:04;;;;;;;0.00;0.00;;;;;;;3.60;100.00;98097.50;4815444;29;20045;-78
2024/03/31 05:31:46;;;;;;;;;;;;;;;;;;;;;
2024/03/31 05:34:42;;;;;;;;;;;;;;;;;;;;;
2024/03/31 05:38:16;;;;;;;;;;;;;;;;;;;;;
2024/03/31 05:41:28;;;;;;;0.10;0.10;;;;;;;3.67;100.00;98079.91;4679280;30;20044;-81
2024/03/31 05:43:57;;;;;;;0.00;0.00;;;;;;;3.79;100.00;98079.56;4723288;30;20931;-79
2024/03/31 05:47:11;;;;;;;0.00;0.00;;;;;;;4.02;100.00;98099.72;4730789;30;20189;-79
2024/03/31 05:49:46;;;;;;;;;;;;;;;;;;;;;
2024/03/31 05:52:48;;;;;;;0.00;0.00;;;;;;;4.02;100.00;98071.88;4743925;30;20040;-80
2024/03/31 05:55:52;;;;;;;0.00;0.00;;;;;;;4.28;100.00;98075.19;4746996;30;20063;-80
2024/03/31 05:58:19;;;;;;;0.00;0.00;;;;;;;4.26;100.00;98061.13;4733064;30;20038;-79
2024/03/31 06:04:06;;;;;;;0.00;0.00;;;;;;;4.28;100.00;98063.56;4726280;30;20052;-80
2024/03/31 06:07:15;;;;;;;0.00;0.00;;;;;;;4.58;100.00;98111.22;4715255;29;20104;-79
2024/03/31 06:10:34;;;;;;;0.00;0.00;;;;;;;4.40;100.00;98060.50;4724268;30;20049;-79
2024/03/31 06:17:04;;;;;;;;;;;;;;;;;;;;;
2024/03/31 06:20:14;;;;;;;0.00;0.00;;;;;;;5.40;100.00;98105.03;4707541;30;20037;-78
2024/03/31 06:23:06;;;;;;;;;;;;;;;;;;;;;
2024/03/31 06:36:11;;;;;;;0.00;0.00;;;;;;;6.63;100.00;98107.16;4678239;30;20061;-79
2024/03/31 06:38:56;;;;;;;0.00;0.00;;;;;;;6.86;100.00;98096.47;4672680;30;20196;-79
2024/03/31 06:45:34;;;;;;;0.00;0.00;;;;;;;7.29;100.00;98115.25;4682221;30;20053;-78
2024/03/31 06:51:08;;;;;;;;;;;;;;;;;;;;;
2024/03/31 06:53:47;;;;;;;0.10;0.10;;;;;;;7.22;100.00;98052.31;4742023;30;20042;-79
2024/03/31 06:56:15;;;;;;;0.00;0.00;;;;;;;7.60;100.00;98095.63;4806391;29;20043;-81
2024/03/31 06:58:41;;;;;;;0.00;0.00;;;;;;;7.46;100.00;98068.41;4819675;29;20037;-80
2024/03/31 07:04:56;;;;;;;0.00;0.00;;;;;;;7.61;100.00;98064.59;4811428;29;20501;-79
2024/03/31 07:07:26;;;;;;;0.00;0.00;;;;;;;7.59;100.00;98053.19;4816414;29;20034;-79
2024/03/31 07:10:27;;;;;;;;;;;;;;;;;;;;;
2024/03/31 07:14:02;;;;;;;0.00;0.00;;;;;;;7.88;100.00;98030.28;4817977;29;20034;-77
2024/03/31 07:17:01;;;;;;;0.00;0.00;;;;;;;8.28;100.00;98068.53;4814276;29;20571;-79
2024/03/31 07:19:29;;;;;;;0.00;0.00;;;;;;;8.21;100.00;98052.66;4816214;29;20038;-77
2024/03/31 07:22:37;;;;;;;0.00;0.00;;;;;;;8.20;100.00;98049.09;4828022;29;20129;-78
2024/03/31 07:32:16;;;;;;;0.00;0.00;;;;;;;8.28;100.00;98028.53;4824692;29;20102;-78
2024/03/31 07:35:17;;;;;;;;;;;;;;;;;;;;;
2024/03/31 07:37:43;;;;;;;0.00;0.00;;;;;;;8.80;100.00;98038.97;4778991;29;20043;-78
2024/03/31 07:43:52;;;;;;;0.00;0.00;;;;;;;9.37;100.00;98068.22;4810428;29;20045;-78
2024/03/31 07:46:38;;;;;;;0.00;0.00;;;;;;;9.41;100.00;98060.25;4828165;29;20098;-78
2024/03/31 07:49:04;;;;;;;0.00;0.00;;;;;;;9.19;100.00;98029.19;4812161;29;20427;-78
2024/03/31 07:51:29;;;;;;;0.00;0.00;;;;;;;9.39;100.00;98048.84;4816659;29;20050;-78
2024/03/31 07:53:55;;;;;;;0.00;0.00;;;;;;;9.24;100.00;98015.44;4828781;29;20046;-80
2024/03/31 07:56:56;;;;;;;;;;;;;;;;;;;;;
2024/03/31 08:13:01;;;;;;;0.00;0.00;;;;;;;9.95;100.00;98030.78;4818168;29;21237;-77
2024/03/31 08:15:29;;;;;;;0.00;0.00;;;;;;;10.20;100.00;98033.84;4833378;29;20050;-78
2024/03/31 08:17:55;;;;;;;0.00;0.00;;;;;;;10.16;100.00;98016.50;4799443;29;20397;-78
2024/03/31 08:20:49;;;;;;;0.00;0.00;;;;;;;10.31;100.00;98024.22;4808584;29;20061;-78
2024/03/31 08:23:15;;;;;;;0.05;0.05;;;;;;;10.55;100.00;98039.31;4807715;29;20167;-79
2024/03/31 08:25:41;;;;;;;0.00;0.00;;;;;;;10.72;100.00;98051.34;4809567;29;20069;-79
2024/03/31 08:28:10;;;;;;;0.00;0.00;;;;;;;10.64;100.00;98012.78;4814802;29;20501;-78
2024/03/31 08:31:12;;;;;;;0.00;0.00;;;;;;;10.92;100.00;98014.31;4801032;29;20126;-79
2024/03/31 08:33:37;;;;;;;0.00;0.00;;;;;;;11.37;100.00;98034.88;4815937;29;20047;-78
2024/03/31 08:36:06;;;;;;;0.00;0.00;;;;;;;11.29;100.00;98007.22;4799515;29;20042;-79
2024/03/31 08:38:31;;;;;;;0.00;0.00;;;;;;;11.53;100.00;98038.66;4814681;29;20034;-78
2024/03/31 08:41:27;;;;;;;0.00;0.00;;;;;;;11.34;100.00;97987.88;4803374;29;20031;-77
2024/03/31 08:44:03;;;;;;;0.00;0.00;;;;;;;11.39;100.00;97988.81;4817891;29;20050;-77
2024/03/31 08:46:29;;;;;;;0.00;0.00;;;;;;;11.35;100.00;98000.44;4823270;29;20034;-78
2024/03/31 08:48:57;;;;;;;0.00;0.00;;;;;;;11.37;100.00;98002.03;4815717;29;20049;-76
2024/03/31 08:51:23;;;;;;;0.00;0.00;;;;;;;11.61;100.00;98021.38;4804688;29;20109;-75
2024/03/31 08:53:50;;;;;;;0.00;0.00;;;;;;;11.77;100.00;98026.25;4814696;29;20184;-75
2024/03/31 08:56:19;;;;;;;0.00;0.00;;;;;;;11.82;100.00;98023.34;4827712;29;20042;-74
2024/03/31 08:59:05;;;;;;;0.00;0.00;;;;;;;11.93;97.10;98035.53;4817312;29;20027;-77
2024/03/31 09:01:36;;;;;;;0.00;0.00;;;;;;;11.77;95.39;98023.53;4796353;29;20054;-77
2024/03/31 09:04:03;;;;;;;0.00;0.00;;;;;;;11.83;94.11;98023.00;4816450;29;20038;-77
2024/03/31 09:06:28;;;;;;;0.00;0.00;;;;;;;11.96;92.02;98029.41;4800863;29;20031;-77
2024/03/31 09:08:55;;;;;;;0.00;0.00;;;;;;;11.98;91.58;98016.16;4818501;29;20034;-77
2024/03/31 09:11:20;;;;;;;0.00;0.00;;;;;;;12.10;90.20;98033.78;4805066;29;20109;-78
2024/03/31 09:13:46;;;;;;;0.00;0.00;;;;;;;12.07;90.17;98037.22;4805447;29;20125;-77
2024/03/31 09:16:12;;;;;;;0.00;0.00;;;;;;;12.09;88.99;98032.19;4818586;29;20080;-76
2024/03/31 09:18:37;;;;;;;0.10;0.10;;;;;;;12.05;87.26;98023.84;4802177;29;20488;-77
2024/03/31 09:21:03;;;;;;;0.00;0.00;;;;;;;12.28;86.65;98029.78;4805296;29;20096;-76
2024/03/31 09:23:32;;;;;;;0.00;0.00;;;;;;;12.45;84.81;98017.06;4786955;29;21274;-76
2024/03/31 09:26:00;;;;;;;0.00;0.00;;;;;;;12.61;83.71;98009.78;4826419;29;20037;-77
2024/03/31 09:28:31;;;;;;;0.00;0.00;;;;;;;12.85;83.16;98008.25;4817278;29;20038;-76
2024/03/31 09:30:57;;;;;;;0.00;0.00;;;;;;;13.01;81.86;98011.94;4823052;29;20035;-77
2024/03/31 09:33:25;;;;;;;0.00;0.00;;;;;;;13.19;80.97;98017.22;4817090;29;20512;-76
2024/03/31 09:35:52;;;;;;;0.00;0.00;;;;;;;13.29;80.60;98008.53;4804774;29;20066;-76
2024/03/31 09:38:17;;;;;;;0.00;0.00;;;;;;;13.50;79.55;98013.91;4818593;29;20094;-76
2024/03/31 09:40:43;;;;;;;0.00;0.00;;;;;;;14.22;79.99;98018.00;4823666;29;20035;-74
2024/03/31 09:43:09;;;;;;;0.00;0.00;;;;;;;15.47;75.17;98014.22;4803851;29;20038;-76
2024/03/31 09:45:34;;;;;;;0.00;0.00;;;;;;;15.99;70.27;98017.75;4802225;29;20038;-78
2024/03/31 09:48:09;;;;;;;0.10;0.10;;;;;;;16.52;67.91;97998.75;4821618;29;20125;-76
2024/03/31 09:50:58;;;;;;;0.00;0.00;;;;;;;17.59;63.10;98006.50;4798754;29;20022;-75
2024/03/31 09:53:27;;;;;;;0.00;0.00;;;;;;;17.92;61.18;97997.53;4794928;29;20031;-76
2024/03/31 09:55:59;;;;;;;0.00;0.00;;;;;;;17.67;59.84;98001.84;4820254;29;20030;-76
2024/03/31 09:58:29;;;;;;;0.00;0.00;;;;;;;17.03;60.71;98003.25;4821588;29;20026;-76
2024/03/31 10:00:54;;;;;;;0.00;0.00;;;;;;;16.61;61.39;98006.78;4817617;29;20528;-76
2024/03/31 10:03:27;;;;;;;0.00;0.00;;;;;;;16.13;62.86;98018.06;4816680;29;20126;-76
2024/03/31 10:05:54;;;;;;;0.00;0.00;;;;;;;15.98;63.73;97988.59;4814161;29;20443;-76
2024/03/31 10:08:21;;;;;;;0.00;0.00;;;;;;;16.28;64.11;97994.34;4816559;29;20286;-77
2024/03/31 10:10:47;;;;;;;0.00;0.00;;;;;;;15.96;63.31;97996.41;4817069;29;20035;-76
2024/03/31 10:13:16;;;;;;;0.00;0.00;;;;;;;15.22;63.76;98003.38;4804594;29;20042;-76
2024/03/31 10:15:42;;;;;;;0.00;0.00;;;;;;;14.68;66.34;97998.50;4831217;29;20475;-77
2024/03/31 10:18:09;;;;;;;0.00;0.00;;;;;;;14.43;68.48;97996.63;4800428;29;20054;-77
2024/03/31 10:20:35;;;;;;;0.00;0.00;;;;;;;14.52;69.24;97977.22;4818621;29;20050;-77
2024/03/31 10:23:10;;;;;;;0.00;0.00;;;;;;;15.47;69.42;97978.41;4833150;29;20079;-75
2024/03/31 10:25:36;;;;;;;0.00;0.00;;;;;;;17.42;66.01;97991.22;4817597;29;20026;-75
2024/03/31 10:28:03;;;;;;;0.00;0.00;;;;;;;20.05;56.97;97978.13;4830099;29;20026;-78
2024/03/31 10:30:34;;;;;;;0.00;0.00;;;;;;;22.37;51.25;97982.59;4828216;29;20109;-78
2024/03/31 10:33:06;;;;;;;0.00;0.00;;;;;;;25.22;43.03;97971.34;4834144;29;20032;-79
2024/03/31 10:35:34;;;;;;;0.00;0.00;;;;;;;29.15;36.97;97978.81;4833839;29;20087;-78
2024/03/31 10:38:02;;;;;;;0.00;0.00;;;;;;;29.77;31.75;97984.78;4806258;29;20094;-82
2024/03/31 10:40:33;;;;;;;0.00;0.00;;;;;;;28.52;33.23;97969.88;4817004;29;20087;-78
2024/03/31 10:43:11;;;;;;;;;;;;;;;;;;;;;
2024/03/31 10:45:37;;;;;;;0.00;0.00;;;;;;;26.17;35.34;97963.66;4819331;29;20048;-76
2024/03/31 10:48:05;;;;;;;0.00;0.00;;;;;;;28.47;34.43;97987.28;4816312;29;20537;-77
2024/03/31 10:50:40;;;;;;;0.00;0.00;;;;;;;30.80;30.97;97967.31;4832043;29;20042;-78
2024/03/31 10:53:07;;;;;;;0.00;0.00;;;;;;;33.07;27.87;97965.13;4816241;29;20030;-75
2024/03/31 10:55:33;;;;;;;0.00;0.00;;;;;;;34.94;25.70;97940.41;4825155;29;20039;-76
2024/03/31 10:58:00;;;;;;;0.00;0.00;;;;;;;36.88;23.14;97939.25;4803592;29;20038;-79
2024/03/31 11:00:34;;;;;;;0.00;0.00;;;;;;;36.78;22.02;97952.88;4838930;29;20513;-78
2024/03/31 11:03:09;;;;;;;0.00;0.00;;;;;;;34.52;23.65;97933.00;4818726;29;20157;-77
2024/03/31 11:05:35;;;;;;;0.00;0.00;;;;;;;33.61;24.77;97934.13;4813908;29;20062;-77
2024/03/31 11:08:04;;;;;;;0.00;0.00;;;;;;;35.52;23.54;97925.72;4831071;29;20497;-74
2024/03/31 11:10:31;;;;;;;0.00;0.00;;;;;;;38.29;22.27;97941.97;4834800;29;20018;-76
2024/03/31 11:12:56;;;;;;;0.00;0.00;;;;;;;41.09;19.54;97947.53;4812859;29;20061;-79
2024/03/31 11:15:22;;;;;;;0.00;0.00;;;;;;;41.42;18.11;97922.72;4829511;29;20057;-77
2024/03/31 11:17:49;;;;;;;0.00;0.00;;;;;;;39.08;18.38;97926.88;4815761;29;20090;-78
2024/03/31 11:20:15;;;;;;;0.00;0.00;;;;;;;35.07;21.42;97931.56;4814806;29;20050;-76
2024/03/31 11:22:42;;;;;;;0.00;0.00;;;;;;;30.94;24.97;97908.75;4808700;29;20030;-76
2024/03/31 11:26:02;;;;;;;0.00;0.00;;;;;;;27.44;29.22;97916.72;4819821;29;20029;-75
2024/03/31 11:28:29;;;;;;;0.00;0.00;;;;;;;25.40;32.07;97926.31;4814329;29;20125;-76
2024/03/31 11:30:54;;;;;;;0.00;0.00;;;;;;;24.02;34.51;97918.31;4813067;29;20122;-75
2024/03/31 11:33:21;;;;;;;0.00;0.00;;;;;;;23.01;37.48;97916.50;4799351;29;20082;-77
2024/03/31 11:35:49;;;;;;;0.00;0.00;;;;;;;22.02;40.24;97913.91;4802736;29;20041;-76
2024/03/31 11:38:19;;;;;;;0.00;0.00;;;;;;;21.10;42.65;97878.41;4793895;29;20053;-76
2024/03/31 11:40:45;;;;;;;0.00;0.00;;;;;;;21.00;43.77;97902.22;4818348;29;20193;-76
2024/03/31 11:43:10;;;;;;;0.00;0.00;;;;;;;21.24;43.96;97911.72;4794626;29;20045;-74
2024/03/31 11:45:36;;;;;;;0.00;0.00;;;;;;;21.53;43.74;97892.25;4815931;29;20034;-75
2024/03/31 11:48:03;;;;;;;0.00;0.00;;;;;;;21.98;43.63;97913.94;4807933;29;20046;-75
2024/03/31 11:50:30;;;;;;;0.00;0.00;;;;;;;21.66;43.58;97909.28;4815516;29;20065;-74
2024/03/31 11:52:56;;;;;;;0.00;0.00;;;;;;;21.10;43.82;97912.53;4812594;29;20034;-74
2024/03/31 11:55:21;;;;;;;0.00;0.00;;;;;;;21.01;44.84;97911.34;4811388;29;20042;-75
2024/03/31 11:58:02;;;;;;;0.00;0.00;;;;;;;21.25;45.29;97909.75;4813825;29;20120;-76
2024/03/31 12:13:52;;;;;;;0.00;0.00;;;;;;;20.41;47.10;97885.88;4573005;27;20058;-78
2024/03/31 12:16:18;;;;;;;0.00;0.00;;;;;;;20.11;48.75;97875.91;4805337;29;20095;-79
2024/03/31 12:18:51;;;;;;;0.00;0.00;;;;;;;20.22;49.71;97854.56;4814105;29;20023;-80
2024/03/31 12:21:21;;;;;;;0.00;0.00;;;;;;;20.83;48.30;97880.81;4821753;29;20023;-78
2024/03/31 12:23:48;;;;;;;0.00;0.00;;;;;;;20.53;47.94;97871.63;4823049;29;20082;-79
2024/03/31 12:26:15;;;;;;;0.00;0.00;;;;;;;20.60;48.43;97859.72;4809997;29;20041;-78
2024/03/31 12:28:42;;;;;;;0.00;0.00;;;;;;;21.18;48.05;97879.97;4814751;29;20079;-79
2024/03/31 12:31:10;;;;;;;0.00;0.00;;;;;;;21.20;46.91;97899.03;4817999;29;20453;-79
2024/03/31 12:33:43;;;;;;;0.00;0.00;;;;;;;20.79;47.39;97866.13;4782233;29;20035;-78
2024/03/31 12:36:10;;;;;;;0.00;0.00;;;;;;;20.60;48.40;97895.81;4817513;29;20035;-78
2024/03/31 12:42:26;;;;;;;0.00;0.00;;;;;;;19.26;49.80;97838.28;4812155;29;20050;-79
2024/03/31 12:44:58;;;;;;;0.00;0.00;;;;;;;19.24;50.58;97846.22;4807725;29;20522;-78
2024/03/31 12:47:35;;;;;;;0.00;0.00;;;;;;;19.33;50.29;97855.78;4808083;29;20038;-78
2024/03/31 12:50:14;;;;;;;0.00;0.00;;;;;;;19.45;49.27;97829.69;4819255;29;20038;-78
2024/03/31 12:52:39;;;;;;;0.00;0.00;;;;;;;19.25;49.96;97859.66;4799166;29;20026;-78
2024/03/31 12:55:12;;;;;;;0.00;0.00;;;;;;;18.83;50.98;97833.25;4825177;29;20110;-81
2024/03/31 12:57:44;;;;;;;0.00;0.00;;;;;;;19.35;49.67;97861.72;4809734;29;20038;-78
2024/03/31 13:00:10;;;;;;;0.00;0.00;;;;;;;20.35;48.75;97882.69;4824089;29;20036;-77
2024/03/31 13:02:44;;;;;;;0.00;0.00;;;;;;;20.61;47.87;97836.34;4822879;29;20114;-78
2024/03/31 13:05:10;;;;;;;0.00;0.00;;;;;;;20.81;47.39;97855.41;4819285;29;20061;-82
2024/03/31 13:07:37;;;;;;;0.00;0.00;;;;;;;20.78;46.97;97864.53;4800226;29;20072;-79
2024/03/31 13:10:06;;;;;;;0.00;0.00;;;;;;;20.95;46.83;97871.28;4800976;29;20027;-78
2024/03/31 13:12:32;;;;;;;0.00;0.00;;;;;;;21.01;46.64;97870.50;4789902;29;20061;-78
2024/03/31 13:15:00;;;;;;;0.00;0.00;;;;;;;20.60;46.18;97853.41;4810757;29;20038;-78
2024/03/31 13:17:28;;;;;;;0.00;0.00;;;;;;;20.53;46.83;97856.94;4807738;29;20103;-77
2024/03/31 13:19:53;;;;;;;0.00;0.00;;;;;;;20.42;47.56;97842.28;4821075;29;20030;-79
2024/03/31 13:22:24;;;;;;;0.00;0.00;;;;;;;21.40;47.42;97846.59;4797409;29;20496;-77
2024/03/31 13:24:49;;;;;;;0.00;0.00;;;;;;;22.73;44.04;97834.75;4798663;29;20629;-76
2024/03/31 13:27:20;;;;;;;0.00;0.00;;;;;;;25.21;43.01;97850.28;4817742;29;20118;-80
2024/03/31 13:29:46;;;;;;;0.00;0.00;;;;;;;29.59;34.86;97821.31;4811712;29;20034;-79
2024/03/31 13:32:21;;;;;;;0.00;0.00;;;;;;;32.34;30.29;97849.00;4800745;29;20035;-80
2024/03/31 13:34:46;;;;;;;0.00;0.00;;;;;;;33.27;28.07;97827.91;4807431;29;20097;-79
2024/03/31 13:37:12;;;;;;;0.00;0.00;;;;;;;32.77;28.78;97826.31;4801399;29;20034;-75
2024/03/31 13:39:37;;;;;;;0.00;0.00;;;;;;;33.84;28.42;97819.19;4806387;29;20042;-77
2024/03/31 13:42:05;;;;;;;0.00;0.00;;;;;;;37.57;25.64;97835.72;4803211;29;20531;-77
2024/03/31 13:44:31;;;;;;;0.00;0.00;;;;;;;37.47;24.38;97832.34;4793138;29;20123;-76
2024/03/31 13:47:00;;;;;;;0.00;0.00;;;;;;;34.74;25.63;97813.38;4808964;29;20033;-80
2024/03/31 13:49:26;;;;;;;0.00;0.00;;;;;;;32.61;27.52;97790.72;4823976;29;20847;-79
2024/03/31 13:51:51;;;;;;;0.00;0.00;;;;;;;32.80;27.71;97791.41;4810204;29;20179;-81
2024/03/31 13:54:17;;;;;;;0.00;0.00;;;;;;;31.57;28.61;97778.69;4816550;29;20136;-77
2024/03/31 13:56:49;;;;;;;0.00;0.00;;;;;;;30.74;29.15;97777.38;4781719;29;20072;-77
2024/03/31 14:02:14;;;;;;;0.00;0.00;;;;;;;27.05;33.05;97745.38;4747698;30;20042;-78
2024/03/31 14:04:39;;;;;;;0.00;0.00;;;;;;;26.36;33.78;97770.78;4805830;29;20129;-75
2024/03/31 14:07:06;;;;;;;0.00;0.00;;;;;;;25.97;34.87;97770.44;4814377;29;20130;-74
2024/03/31 14:09:34;;;;;;;0.00;0.00;;;;;;;28.61;34.31;97764.03;4814892;29;20043;-73
2024/03/31 14:11:59;;;;;;;0.00;0.00;;;;;;;30.76;30.93;97745.91;4775578;29;20042;-78
2024/03/31 14:14:25;;;;;;;0.00;0.00;;;;;;;30.13;30.71;97756.53;4801617;29;20662;-75
2024/03/31 14:16:50;;;;;;;0.00;0.00;;;;;;;28.93;31.01;97746.06;4818678;29;20489;-77
2024/03/31 14:19:34;;;;;;;0.00;0.00;;;;;;;27.83;32.16;97746.38;4789076;29;20052;-75
2024/03/31 14:22:00;;;;;;;0.00;0.00;;;;;;;26.97;33.49;97738.41;4820625;29;20030;-75
2024/03/31 14:24:26;;;;;;;0.00;0.00;;;;;;;26.45;34.38;97765.34;4786987;29;20049;-76
2024/03/31 14:26:54;;;;;;;0.00;0.00;;;;;;;25.41;35.53;97748.88;4782187;29;20031;-78
2024/03/31 14:29:19;;;;;;;0.00;0.00;;;;;;;24.43;37.31;97727.50;4801538;29;20062;-76
2024/03/31 14:31:45;;;;;;;0.00;0.00;;;;;;;24.14;38.23;97736.34;4794881;29;20073;-76
2024/03/31 14:34:10;;;;;;;0.00;0.00;;;;;;;24.36;38.23;97733.19;4804046;29;20785;-77
2024/03/31 14:36:38;;;;;;;0.00;0.00;;;;;;;24.72;37.97;97732.59;4797365;29;20041;-74
2024/03/31 14:39:04;;;;;;;0.00;0.00;;;;;;;24.74;38.20;97738.56;4803774;29;20374;-74
2024/03/31 14:41:31;;;;;;;0.00;0.00;;;;;;;24.91;38.49;97734.63;4802682;29;20034;-76
2024/03/31 14:43:57;;;;;;;0.00;0.00;;;;;;;25.40;37.36;97722.13;4802529;29;20445;-74
2024/03/31 14:46:25;;;;;;;0.00;0.00;;;;;;;26.95;36.70;97722.00;4801178;29;20081;-78
2024/03/31 14:48:51;;;;;;;0.00;0.00;;;;;;;30.51;33.40;97721.59;4819878;29;20030;-74
2024/03/31 14:51:17;;;;;;;0.00;0.00;;;;;;;34.42;29.92;97731.72;4817624;29;20088;-76
2024/03/31 14:53:42;;;;;;;0.00;0.00;;;;;;;35.94;26.78;97729.03;4808793;29;20068;-75
2024/03/31 14:56:43;;;;;;;;;;;;;;;;;;;;;
2024/03/31 14:59:22;;;;;;;;;;;;;;;;;;;;;
2024/03/31 15:01:56;;;;;;;0.00;0.00;;;;;;;30.33;28.49;97709.00;4821046;29;20035;-77